Time;durP1;ratioP1;P1;durP2;ratioP2;P2;SDS_P1;SDS_P2;PMS_P1;PMS_P2;Temp;Humidity;BMP_temperature;BMP_pressure;BME280_temperature;BME280_humidity;BME280_pressure;Samples;Min_cycle;Max_cycle;Signal;HPM_P1;HPM_P2
2022/09/17 00:01:36;;;;;;;1.00;0.90;;;10.40;99.90;;;13.32;56.63;97251.72;5025473;28;20045;-54
2022/09/17 00:04:05;;;;;;;2.33;1.10;;;10.50;99.90;;;13.05;57.27;97254.03;5024382;28;20057;-53
2022/09/17 00:06:34;;;;;;;1.00;0.90;;;10.40;99.90;;;13.27;57.01;97241.53;5027294;28;20050;-51
2022/09/17 00:09:05;;;;;;;2.53;0.90;;;10.50;99.90;;;13.51;56.38;97248.44;5026680;28;20061;-53
2022/09/17 00:11:37;;;;;;;1.38;0.88;;;10.60;99.90;;;13.50;56.42;97249.44;5024310;28;20049;-54
2022/09/17 00:14:08;;;;;;;2.53;1.17;;;10.70;99.90;;;13.63;55.90;97254.13;5026890;28;20052;-53
2022/09/17 00:16:44;;;;;;;2.10;0.90;;;10.70;99.90;;;13.55;56.32;97252.38;5025835;28;20324;-54
2022/09/17 00:19:21;;;;;;;2.10;0.90;;;10.70;99.90;;;13.74;55.91;97258.94;5026020;28;20263;-54
2022/09/17 00:21:50;;;;;;;1.20;0.90;;;10.70;99.90;;;13.77;55.84;97257.75;5027932;28;20416;-52
2022/09/17 00:24:19;;;;;;;1.27;0.90;;;10.80;99.90;;;13.78;55.81;97254.88;5026875;28;20057;-54
2022/09/17 00:26:48;;;;;;;3.10;1.02;;;10.80;99.90;;;13.70;56.03;97255.00;5024755;28;20340;-52
2022/09/17 00:29:16;;;;;;;1.47;1.00;;;10.80;99.90;;;13.74;55.96;97256.25;5026321;28;20263;-53
2022/09/17 00:31:44;;;;;;;2.22;1.25;;;10.80;99.90;;;13.54;56.30;97256.06;5023662;28;20060;-53
2022/09/17 00:34:12;;;;;;;3.03;1.20;;;10.70;99.90;;;13.43;56.60;97250.38;5008555;28;20067;-49
2022/09/17 00:36:40;;;;;;;3.60;1.20;;;10.60;99.90;;;13.20;57.28;97251.31;5025351;28;20363;-54
2022/09/17 00:39:11;;;;;;;1.98;1.20;;;10.60;99.90;;;13.16;57.36;97250.88;5025301;28;20049;-53
2022/09/17 00:41:39;;;;;;;2.05;1.45;;;10.50;99.90;;;13.14;57.64;97250.25;5025101;28;20048;-51
2022/09/17 00:44:42;;;;;;;1.37;1.27;;;10.40;99.90;;;13.18;57.66;97251.53;5026640;28;20053;-51
2022/09/17 00:47:15;;;;;;;2.00;1.30;;;10.50;99.90;;;13.28;57.59;97247.72;5024941;28;20079;-50
2022/09/17 00:49:43;;;;;;;3.10;1.20;;;10.50;99.90;;;13.16;57.63;97250.88;5025770;28;20046;-49
2022/09/17 00:52:20;;;;;;;1.98;1.27;;;10.40;99.90;;;13.30;57.24;97248.38;5025437;28;20034;-55
2022/09/17 00:55:14;;;;;;;2.28;1.50;;;10.50;99.90;;;13.36;56.95;97247.66;5025848;28;20217;-53
2022/09/17 00:57:44;;;;;;;3.15;1.30;;;10.50;99.90;;;13.08;57.52;97259.00;5026175;28;20041;-51
2022/09/17 01:00:14;;;;;;;2.22;1.20;;;10.40;99.90;;;13.07;57.73;97261.88;5026064;28;20057;-53
2022/09/17 01:02:43;;;;;;;6.30;1.93;;;10.40;99.90;;;13.07;57.99;97253.84;5025026;28;20065;-54
2022/09/17 01:05:12;;;;;;;2.83;1.40;;;10.40;99.90;;;13.20;57.49;97262.88;5027175;28;20555;-50
2022/09/17 01:07:56;;;;;;;2.80;1.58;;;10.50;99.90;;;13.19;57.81;97266.53;5029157;28;20053;-53
2022/09/17 01:10:42;;;;;;;1.92;1.23;;;10.50;99.90;;;13.13;57.77;97259.28;5030226;28;20053;-52
2022/09/17 01:14:04;;;;;;;2.17;1.10;;;10.40;99.90;;;13.22;57.52;97257.31;5030112;28;20057;-55
2022/09/17 01:16:52;;;;;;;3.50;1.17;;;10.50;99.90;;;13.25;57.68;97266.81;5029341;28;20068;-53
2022/09/17 01:19:36;;;;;;;3.80;1.73;;;10.50;99.90;;;12.88;58.76;97268.59;5028951;28;20051;-54
2022/09/17 01:23:01;;;;;;;3.07;1.80;;;10.40;99.90;;;12.95;58.69;97266.84;5028951;28;20064;-54
2022/09/17 01:26:04;;;;;;;2.00;1.50;;;10.30;99.90;;;13.16;57.80;97261.59;5026536;28;20055;-54
2022/09/17 01:28:52;;;;;;;1.30;1.00;;;10.40;99.90;;;13.12;58.15;97280.84;5013719;28;20068;-52
2022/09/17 01:31:47;;;;;;;1.83;1.10;;;10.40;99.90;;;13.15;58.09;97288.50;5029654;28;20053;-52
2022/09/17 01:34:58;;;;;;;2.20;1.87;;;10.40;99.90;;;13.08;58.26;97288.38;5027755;28;20382;-53
2022/09/17 01:37:56;;;;;;;3.73;1.40;;;10.40;99.90;;;13.13;58.06;97283.31;5028562;28;20057;-54
2022/09/17 01:40:40;;;;;;;4.33;1.70;;;10.40;99.90;;;12.99;58.45;97284.19;5027206;28;20053;-54
2022/09/17 01:43:48;;;;;;;9.05;1.80;;;10.40;99.90;;;12.71;59.00;97284.81;5013899;28;20248;-55
2022/09/17 01:46:32;;;;;;;2.60;1.80;;;10.30;99.90;;;13.04;58.14;97288.97;5011864;28;20059;-53
2022/09/17 01:49:05;;;;;;;3.97;1.67;;;10.40;99.90;;;12.80;58.71;97285.56;5029371;28;20053;-50
2022/09/17 01:51:42;;;;;;;3.95;1.33;;;10.30;99.90;;;13.15;57.79;97289.31;5028787;28;20197;-54
2022/09/17 01:54:41;;;;;;;1.58;1.00;;;10.40;99.90;;;13.07;58.11;97281.41;5029639;28;20057;-56
2022/09/17 01:57:35;;;;;;;2.17;1.40;;;10.40;99.90;;;12.93;57.96;97284.91;5030996;28;20057;-52
2022/09/17 02:00:11;;;;;;;2.70;1.43;;;10.40;99.90;;;13.23;57.57;97288.38;5027277;28;20050;-52
2022/09/17 02:03:04;;;;;;;3.33;1.40;;;10.50;99.90;;;13.17;57.50;97289.13;5029178;28;20052;-54
2022/09/17 02:05:49;;;;;;;3.55;1.38;;;10.40;99.90;;;13.29;57.14;97287.63;5014433;28;20347;-53
2022/09/17 02:08:25;;;;;;;2.33;1.10;;;10.40;99.90;;;13.05;57.79;97287.97;5027408;28;20053;-53
2022/09/17 02:11:05;;;;;;;2.25;1.42;;;10.40;99.90;;;13.16;57.17;97279.44;5011941;28;20348;-52
2022/09/17 02:13:45;;;;;;;3.45;1.55;;;10.40;99.90;;;13.18;57.14;97283.59;5027183;28;20059;-53
2022/09/17 02:16:23;;;;;;;6.97;1.27;;;10.40;99.90;;;13.07;57.26;97277.91;5030533;28;20060;-53
2022/09/17 02:19:09;;;;;;;4.88;1.60;;;10.30;99.90;;;13.17;57.09;97283.78;5028779;28;20255;-53
2022/09/17 02:22:26;;;;;;;5.13;1.60;;;10.40;99.90;;;13.22;56.88;97283.22;5027816;28;20064;-53
2022/09/17 02:25:07;;;;;;;4.40;1.40;;;10.50;99.90;;;13.36;56.66;97285.09;5028187;28;20262;-48
2022/09/17 02:28:04;;;;;;;2.47;1.33;;;10.50;99.90;;;13.20;56.83;97278.03;5027961;28;20063;-50
2022/09/17 02:30:33;;;;;;;3.60;1.60;;;10.40;99.90;;;13.10;57.06;97274.84;5027696;28;20057;-53
2022/09/17 02:33:03;;;;;;;3.15;1.73;;;10.30;99.90;;;13.28;56.83;97279.78;5027033;28;20056;-53
2022/09/17 02:35:32;;;;;;;3.83;1.30;;;10.40;99.90;;;12.94;57.35;97286.56;5027426;28;20567;-50
2022/09/17 02:38:00;;;;;;;8.13;2.53;;;10.20;99.90;;;13.08;56.89;97274.19;5026685;28;20061;-52
2022/09/17 02:40:36;;;;;;;3.17;1.55;;;10.20;99.90;;;12.93;57.47;97274.19;5027776;28;20045;-52
2022/09/17 02:43:49;;;;;;;4.07;1.40;;;10.20;99.90;;;13.02;57.04;97277.63;5027880;28;20075;-50
2022/09/17 02:46:54;;;;;;;2.23;1.40;;;10.10;99.90;;;12.80;57.40;97283.72;5028073;28;20339;-54
2022/09/17 02:49:57;;;;;;;3.95;2.60;;;10.00;99.90;;;12.68;57.69;97281.66;5028888;28;20046;-53
2022/09/17 02:52:48;;;;;;;3.30;1.60;;;9.90;99.90;;;12.77;57.56;97281.38;5026859;28;20612;-54
2022/09/17 02:55:21;;;;;;;4.10;1.70;;;9.90;99.90;;;12.87;56.97;97274.94;5028350;28;20236;-52
2022/09/17 02:58:03;;;;;;;2.17;1.40;;;10.00;99.90;;;12.87;56.96;97270.47;5028498;28;20457;-53
2022/09/17 03:00:31;;;;;;;3.83;1.37;;;10.00;99.90;;;12.93;56.78;97274.19;5027567;28;20048;-54
2022/09/17 03:03:25;;;;;;;5.33;2.20;;;10.00;99.90;;;12.85;57.30;97276.97;5027139;28;20064;-53
2022/09/17 03:05:54;;;;;;;3.75;1.40;;;10.00;99.90;;;13.03;56.70;97274.78;5027327;28;20065;-51
2022/09/17 03:08:29;;;;;;;3.20;1.53;;;10.10;99.90;;;13.02;56.72;97277.63;5026514;28;20163;-53
2022/09/17 03:10:57;;;;;;;5.43;1.60;;;10.10;99.90;;;12.96;56.97;97274.66;5026522;28;20057;-51
2022/09/17 03:13:24;;;;;;;2.70;1.50;;;10.10;99.90;;;13.02;56.76;97281.13;5025107;28;20045;-54
2022/09/17 03:15:52;;;;;;;7.00;2.23;;;10.10;99.90;;;13.09;56.46;97268.69;5027597;28;20072;-54
2022/09/17 03:18:20;;;;;;;2.83;1.30;;;10.10;99.90;;;12.92;57.00;97270.72;5028543;28;20057;-53
2022/09/17 03:20:48;;;;;;;3.07;2.13;;;10.00;99.90;;;12.74;57.39;97273.75;5027275;28;20076;-53
2022/09/17 03:23:16;;;;;;;1.83;1.20;;;9.90;99.90;;;12.60;57.83;97270.06;5026474;28;20049;-52
2022/09/17 03:25:46;;;;;;;4.70;1.73;;;9.80;99.90;;;12.49;58.07;97265.19;5027334;28;20053;-52
2022/09/17 03:28:14;;;;;;;4.63;1.70;;;9.70;99.90;;;12.70;57.41;97275.16;5025924;28;20359;-55
2022/09/17 03:30:44;;;;;;;4.23;1.53;;;9.80;99.90;;;12.68;57.46;97274.50;5025879;28;20067;-53
2022/09/17 03:33:13;;;;;;;9.02;1.70;;;9.80;99.90;;;12.45;58.15;97279.91;5027832;28;20061;-50
2022/09/17 03:35:45;;;;;;;3.97;2.33;;;9.70;99.90;;;12.67;57.31;97275.50;5026309;28;20049;-56
2022/09/17 03:38:13;;;;;;;2.20;1.50;;;9.80;99.90;;;12.47;57.93;97266.38;5026920;28;20057;-53
2022/09/17 03:40:41;;;;;;;3.57;1.70;;;9.70;99.90;;;12.28;58.56;97283.75;5026709;28;20045;-51
2022/09/17 03:43:09;;;;;;;2.80;1.70;;;9.60;99.90;;;12.32;58.27;97277.03;5026388;28;20216;-54
2022/09/17 03:45:37;;;;;;;2.87;1.67;;;9.60;99.90;;;12.45;57.98;97273.75;5028186;28;20339;-53
2022/09/17 03:48:05;;;;;;;5.07;1.77;;;9.70;99.90;;;12.43;58.41;97284.59;5027435;28;20051;-50
2022/09/17 03:50:33;;;;;;;4.65;1.70;;;9.70;99.90;;;12.49;58.17;97277.72;5027216;28;20052;-53
2022/09/17 03:53:01;;;;;;;2.70;1.87;;;9.70;99.90;;;12.57;58.10;97283.78;5026231;28;20048;-53
2022/09/17 03:55:28;;;;;;;2.80;1.50;;;9.80;99.90;;;12.44;58.06;97283.56;5027553;28;20053;-52
2022/09/17 03:57:56;;;;;;;2.87;1.70;;;9.70;99.90;;;12.51;57.77;97287.19;5026978;28;20049;-52
2022/09/17 04:00:24;;;;;;;4.20;1.60;;;9.70;99.90;;;12.19;58.91;97291.84;5026528;28;20049;-54
2022/09/17 04:02:52;;;;;;;3.17;1.63;;;9.50;99.90;;;12.21;58.74;97292.47;5027252;28;20067;-53
2022/09/17 04:05:20;;;;;;;3.47;1.73;;;9.50;99.90;;;11.98;59.37;97308.50;5027122;28;20053;-54
2022/09/17 04:07:48;;;;;;;3.80;2.10;;;9.50;99.90;;;11.91;59.83;97299.53;5025932;28;20057;-52
2022/09/17 04:10:16;;;;;;;4.33;1.90;;;9.40;99.90;;;11.96;59.61;97307.00;5027214;28;20055;-53
2022/09/17 04:12:44;;;;;;;3.93;1.97;;;9.40;99.90;;;11.94;60.01;97314.34;5026975;28;20057;-53
2022/09/17 04:15:11;;;;;;;3.03;1.97;;;9.40;99.90;;;12.02;59.95;97301.78;5025931;28;20057;-55
2022/09/17 04:17:39;;;;;;;2.87;1.70;;;9.40;99.90;;;12.28;58.95;97305.09;5027389;28;20045;-53
2022/09/17 04:20:08;;;;;;;5.83;1.83;;;9.50;99.90;;;12.13;59.47;97302.38;5026629;28;20386;-52
2022/09/17 04:22:35;;;;;;;4.17;1.80;;;9.50;99.90;;;12.26;58.95;97294.59;5026398;28;20053;-53
2022/09/17 04:25:04;;;;;;;4.00;1.60;;;9.60;99.90;;;12.18;59.24;97302.69;5026456;28;20408;-53
2022/09/17 04:27:32;;;;;;;6.33;1.93;;;9.60;99.90;;;12.32;58.50;97293.03;5026565;28;20049;-53
2022/09/17 04:30:00;;;;;;;3.37;1.90;;;9.60;99.90;;;12.49;57.91;97305.22;5026158;28;20258;-53
2022/09/17 04:32:28;;;;;;;2.23;1.60;;;9.70;99.90;;;12.20;58.55;97306.00;5025836;28;20238;-51
2022/09/17 04:34:56;;;;;;;2.15;1.70;;;9.60;99.90;;;12.28;58.39;97307.75;5024734;28;20364;-55
2022/09/17 04:37:24;;;;;;;3.90;2.17;;;9.60;99.90;;;12.28;58.51;97316.59;5027605;28;20045;-55
2022/09/17 04:39:52;;;;;;;2.80;1.60;;;9.70;99.90;;;12.16;58.35;97316.19;5025841;28;20079;-49
2022/09/17 04:42:20;;;;;;;2.70;1.70;;;9.60;99.90;;;12.28;58.31;97321.09;5030200;28;20072;-54
2022/09/17 04:44:48;;;;;;;4.33;2.33;;;9.60;99.90;;;12.24;58.66;97311.81;5029528;28;20042;-52
2022/09/17 04:47:15;;;;;;;3.40;2.10;;;9.50;99.90;;;12.25;58.61;97324.94;5031893;28;20063;-52
2022/09/17 04:49:43;;;;;;;2.90;2.17;;;9.50;99.90;;;12.06;58.91;97326.28;5030361;28;20247;-52
2022/09/17 04:52:11;;;;;;;4.63;2.10;;;9.40;99.90;;;11.95;59.09;97322.19;5030795;28;20432;-52
2022/09/17 04:54:39;;;;;;;3.70;2.00;;;9.30;99.90;;;11.93;58.84;97334.88;5030338;28;20224;-51
2022/09/17 04:57:07;;;;;;;5.03;2.30;;;9.30;99.90;;;12.21;58.33;97332.50;5031385;28;20067;-54
2022/09/17 04:59:35;;;;;;;3.87;2.47;;;9.40;99.90;;;11.89;59.40;97336.22;5028592;28;20065;-50
2022/09/17 05:02:02;;;;;;;4.07;1.80;;;9.30;99.90;;;12.12;58.76;97340.75;5031713;28;20041;-51
2022/09/17 05:04:30;;;;;;;3.20;2.10;;;9.40;99.90;;;11.91;59.28;97342.22;5030564;28;20050;-54
2022/09/17 05:06:59;;;;;;;4.63;2.20;;;9.30;99.90;;;11.74;59.75;97341.47;5045721;28;20053;-47
2022/09/17 05:09:26;;;;;;;3.53;1.97;;;9.30;99.90;;;11.90;59.73;97345.88;5029724;28;20213;-52
2022/09/17 05:11:54;;;;;;;4.77;3.50;;;9.20;99.90;;;11.99;59.39;97349.34;5028373;28;20116;-51
2022/09/17 05:14:22;;;;;;;3.90;1.70;;;9.30;99.90;;;12.08;58.83;97353.63;5029265;28;20057;-53
2022/09/17 05:16:50;;;;;;;4.43;2.63;;;9.40;99.90;;;12.11;59.00;97345.25;5030546;28;20255;-53
2022/09/17 05:19:17;;;;;;;5.33;2.40;;;9.40;99.90;;;12.36;58.15;97350.41;5028885;28;20057;-50
2022/09/17 05:21:46;;;;;;;8.97;2.70;;;9.50;99.90;;;12.41;58.34;97340.84;5027734;28;20071;-51
2022/09/17 05:24:13;;;;;;;3.20;2.60;;;9.60;99.90;;;12.13;59.00;97335.22;5029179;28;20335;-50
2022/09/17 05:26:41;;;;;;;4.47;2.50;;;9.50;99.90;;;12.14;58.57;97342.22;5029801;28;20042;-53
2022/09/17 05:29:09;;;;;;;7.47;2.60;;;9.50;99.90;;;12.10;58.48;97335.59;5029496;28;20041;-53
2022/09/17 05:31:37;;;;;;;6.07;2.47;;;9.40;99.90;;;12.11;58.85;97339.91;5044623;28;20225;-54
2022/09/17 05:34:04;;;;;;;5.13;2.03;;;9.40;99.90;;;11.98;58.70;97332.50;5028582;28;20065;-53
2022/09/17 05:36:32;;;;;;;7.90;2.80;;;9.40;99.90;;;11.81;59.44;97342.41;5029338;28;20264;-51
2022/09/17 05:39:01;;;;;;;5.03;2.57;;;9.30;99.90;;;11.83;59.70;97340.41;5029794;28;20339;-51
2022/09/17 05:41:28;;;;;;;2.70;2.03;;;9.30;99.90;;;12.03;58.88;97345.31;5028727;28;20057;-54
2022/09/17 05:43:56;;;;;;;7.73;3.00;;;9.40;99.90;;;12.19;58.44;97358.53;5029519;28;20046;-52
2022/09/17 05:46:24;;;;;;;4.07;2.37;;;9.40;99.90;;;12.31;58.27;97356.28;5028503;28;20053;-50
2022/09/17 05:48:56;;;;;;;6.30;2.63;;;9.50;99.90;;;12.28;58.28;97359.31;5029504;28;20045;-53
2022/09/17 05:51:24;;;;;;;5.70;2.80;;;9.40;99.90;;;12.20;58.34;97354.03;5029680;28;20057;-51
2022/09/17 05:53:54;;;;;;;5.60;2.93;;;9.50;99.90;;;12.14;58.60;97362.75;5029355;28;20059;-51
2022/09/17 05:56:23;;;;;;;6.33;2.50;;;9.40;99.90;;;12.21;58.52;97364.53;5028617;28;20045;-53
2022/09/17 05:58:55;;;;;;;5.53;2.40;;;9.50;99.90;;;12.09;59.01;97368.59;5029271;28;20052;-54
2022/09/17 06:01:23;;;;;;;5.03;3.40;;;9.50;99.90;;;12.07;58.95;97365.28;5029152;28;20689;-52
2022/09/17 06:03:52;;;;;;;6.33;2.47;;;9.50;99.90;;;11.93;59.46;97369.56;5029297;28;20045;-52
2022/09/17 06:06:20;;;;;;;7.37;2.60;;;9.40;99.90;;;11.96;59.67;97369.22;5029838;28;20348;-53
2022/09/17 06:08:48;;;;;;;4.93;2.70;;;9.40;99.90;;;12.12;59.06;97367.44;5027668;28;20336;-53
2022/09/17 06:11:15;;;;;;;5.70;2.50;;;9.50;99.90;;;12.19;58.92;97377.22;5027608;28;20057;-51
2022/09/17 06:13:43;;;;;;;5.50;2.63;;;9.50;99.90;;;12.29;57.87;97371.66;5024192;28;20144;-51
2022/09/17 06:16:11;;;;;;;6.10;2.37;;;9.60;99.90;;;12.04;59.07;97381.66;5029193;28;20045;-52
2022/09/17 06:18:39;;;;;;;5.60;2.90;;;9.50;99.90;;;12.30;58.45;97385.81;5027326;28;20052;-50
2022/09/17 06:21:06;;;;;;;6.63;2.73;;;9.60;99.90;;;12.11;58.58;97393.28;5026447;28;20049;-52
2022/09/17 06:23:34;;;;;;;3.60;2.20;;;9.50;99.90;;;11.92;59.02;97389.25;5028573;28;20037;-51
2022/09/17 06:26:04;;;;;;;3.27;2.53;;;9.50;99.90;;;12.15;58.86;97386.56;5027961;28;20049;-53
2022/09/17 06:28:32;;;;;;;4.03;2.38;;;9.50;99.90;;;12.10;59.37;97390.81;5028772;28;20049;-51
2022/09/17 06:31:08;;;;;;;4.43;2.40;;;9.50;99.90;;;12.07;59.05;97391.97;5027372;28;20351;-51
2022/09/17 06:33:36;;;;;;;4.97;2.43;;;9.50;99.90;;;12.34;58.32;97403.97;5028847;28;20059;-50
2022/09/17 06:36:09;;;;;;;7.10;2.42;;;9.60;99.90;;;12.53;58.00;97394.63;5027735;28;20053;-51
2022/09/17 06:38:41;;;;;;;5.23;2.40;;;9.70;99.90;;;12.63;57.78;97394.38;5027868;28;20377;-51
2022/09/17 06:41:09;;;;;;;2.83;2.37;;;9.70;99.90;;;12.63;58.07;97398.91;5028002;28;20055;-50
2022/09/17 06:43:37;;;;;;;4.37;2.33;;;9.70;99.90;;;12.62;58.45;97403.44;5027806;28;20045;-50
2022/09/17 06:46:07;;;;;;;6.83;3.17;;;9.80;99.90;;;12.55;58.56;97402.47;5027508;28;20064;-53
2022/09/17 06:48:37;;;;;;;4.77;2.93;;;9.70;99.90;;;12.45;58.45;97402.72;5028430;28;20057;-50
2022/09/17 06:51:09;;;;;;;7.17;3.60;;;9.60;99.90;;;12.10;60.02;97406.81;5026441;28;20058;-50
2022/09/17 06:53:38;;;;;;;4.20;3.70;;;9.40;99.90;;;12.02;60.14;97405.84;5025996;28;20059;-52
2022/09/17 06:56:08;;;;;;;9.13;3.90;;;9.40;99.90;;;12.24;59.84;97415.91;5025452;28;20354;-52
2022/09/17 06:58:36;;;;;;;6.77;3.27;;;9.40;99.90;;;11.97;60.51;97413.53;5028662;28;20049;-53
2022/09/17 07:01:04;;;;;;;6.77;3.87;;;9.40;99.90;;;12.20;60.22;97412.75;5028469;28;20057;-52
2022/09/17 07:03:34;;;;;;;4.70;2.80;;;9.40;99.90;;;12.16;60.16;97398.91;5025026;28;20045;-49
2022/09/17 07:06:02;;;;;;;4.27;2.50;;;9.40;99.90;;;11.99;61.09;97416.03;5026559;28;20232;-52
2022/09/17 07:08:33;;;;;;;4.90;2.40;;;9.30;99.90;;;11.90;61.76;97417.09;5027321;28;20057;-56
2022/09/17 07:11:01;;;;;;;4.40;2.67;;;9.30;99.90;;;12.11;61.26;97411.13;5027334;28;20049;-54
2022/09/17 07:13:29;;;;;;;4.50;2.87;;;9.30;99.90;;;12.29;60.31;97413.50;5027731;28;20050;-56
2022/09/17 07:15:59;;;;;;;7.40;3.07;;;9.40;99.90;;;12.19;60.49;97419.06;5027016;28;20044;-54
2022/09/17 07:18:27;;;;;;;7.23;3.27;;;9.40;99.90;;;12.14;61.15;97418.78;5026785;28;20057;-55
2022/09/17 07:21:01;;;;;;;4.83;2.87;;;9.40;99.90;;;12.10;61.43;97420.16;5027992;28;20267;-56
2022/09/17 07:23:33;;;;;;;6.65;2.78;;;9.40;99.90;;;11.96;61.54;97430.56;5026553;28;20064;-52
2022/09/17 07:26:05;;;;;;;5.07;2.70;;;9.30;99.90;;;11.90;62.06;97419.75;5027105;28;20051;-51
2022/09/17 07:28:33;;;;;;;4.77;2.50;;;9.20;99.90;;;12.19;61.45;97427.94;5026227;28;20068;-51
2022/09/17 07:31:04;;;;;;;4.53;2.80;;;9.30;99.90;;;12.08;61.82;97430.16;5026529;28;20059;-53
2022/09/17 07:33:34;;;;;;;3.07;2.40;;;9.30;99.90;;;12.13;61.81;97433.94;5025922;28;20057;-49
2022/09/17 07:36:06;;;;;;;6.43;3.27;;;9.30;99.90;;;12.42;61.10;97429.75;5025604;28;20266;-53
2022/09/17 07:38:34;;;;;;;5.47;2.83;;;9.50;99.90;;;12.55;60.78;97431.84;5028224;28;20053;-52
2022/09/17 07:41:14;;;;;;;5.97;2.53;;;9.60;99.90;;;12.32;61.07;97439.84;5042095;28;20057;-54
2022/09/17 07:43:43;;;;;;;7.67;3.20;;;9.50;99.90;;;12.17;61.70;97439.78;5025278;28;20373;-52
2022/09/17 07:46:16;;;;;;;4.70;3.23;;;9.50;99.90;;;11.98;62.41;97443.72;5026097;28;20049;-49
2022/09/17 07:48:46;;;;;;;6.18;3.38;;;9.40;99.90;;;11.98;62.69;97444.56;5027999;28;20046;-51
2022/09/17 07:51:21;;;;;;;8.67;3.50;;;9.40;99.90;;;12.01;62.67;97446.03;5026224;28;20047;-53
2022/09/17 07:53:56;;;;;;;4.53;3.27;;;9.40;99.90;;;12.16;62.43;97451.47;5025921;28;20057;-51
2022/09/17 07:56:26;;;;;;;4.97;3.60;;;9.50;99.90;;;12.28;61.90;97447.38;5027063;28;20057;-52
2022/09/17 07:58:55;;;;;;;6.23;3.23;;;9.60;99.90;;;12.27;62.18;97451.06;5026532;28;20076;-50
2022/09/17 08:01:23;;;;;;;8.03;4.17;;;9.60;99.90;;;12.44;61.64;97459.78;5027241;28;20075;-51
2022/09/17 08:03:53;;;;;;;4.73;3.37;;;9.70;99.90;;;12.61;61.44;97457.84;5025572;28;20064;-49
2022/09/17 08:06:27;;;;;;;5.50;3.35;;;9.90;99.90;;;12.64;61.40;97460.16;5024888;28;20052;-52
2022/09/17 08:08:58;;;;;;;4.78;3.33;;;10.00;99.90;;;12.46;61.40;97476.44;5026180;28;20051;-51
2022/09/17 08:11:28;;;;;;;8.85;3.67;;;9.90;99.90;;;12.39;61.74;97467.50;5026368;28;20041;-50
2022/09/17 08:14:16;;;;;;;4.55;3.83;;;9.90;99.90;;;12.71;61.40;97460.25;5027717;28;20055;-52
2022/09/17 08:16:46;;;;;;;6.20;3.73;;;10.00;99.90;;;12.78;60.96;97464.72;5025522;28;20343;-51
2022/09/17 08:19:14;;;;;;;6.17;3.83;;;10.00;99.90;;;12.96;60.80;97466.22;5025608;28;20072;-54
2022/09/17 08:21:41;;;;;;;12.03;3.93;;;10.10;99.90;;;12.80;61.07;97468.03;5026493;28;20057;-52
2022/09/17 08:24:09;;;;;;;8.23;4.67;;;10.10;99.90;;;13.12;60.28;97473.25;5027002;28;20641;-53
2022/09/17 08:26:38;;;;;;;7.80;2.97;;;10.30;99.90;;;12.73;61.12;97471.59;5026289;28;20243;-53
2022/09/17 08:29:06;;;;;;;9.73;3.93;;;10.20;99.90;;;12.75;60.47;97465.06;5026495;28;20045;-53
2022/09/17 08:31:34;;;;;;;6.87;3.97;;;10.20;99.90;;;13.01;59.95;97461.19;5025208;28;20079;-53
2022/09/17 08:34:08;;;;;;;6.40;3.08;;;10.30;99.90;;;13.20;59.73;97462.47;5026467;28;20236;-52
2022/09/17 08:36:36;;;;;;;6.15;3.55;;;10.40;99.90;;;13.32;59.47;97463.75;5026099;28;20053;-53
2022/09/17 08:39:04;;;;;;;5.47;2.90;;;10.60;99.90;;;13.20;59.92;97465.16;5008651;28;20059;-54
2022/09/17 08:41:51;;;;;;;4.43;2.90;;;10.70;99.90;;;13.16;60.23;97459.38;5025100;28;20056;-49
2022/09/17 08:44:33;;;;;;;5.80;2.95;;;10.80;99.90;;;13.17;59.55;97465.53;5024152;28;20049;-53
2022/09/17 08:47:25;;;;;;;4.22;2.70;;;10.80;99.90;;;13.46;59.11;97463.94;5009469;28;20045;-51
2022/09/17 08:49:59;;;;;;;6.53;2.63;;;10.90;99.90;;;13.70;58.51;97463.66;5025856;28;20050;-53
2022/09/17 08:52:51;;;;;;;6.93;3.30;;;11.10;99.90;;;13.74;58.68;97472.13;5026354;28;20049;-50
2022/09/17 08:55:33;;;;;;;8.18;2.65;;;11.10;99.90;;;13.98;57.44;97465.66;5028021;28;20049;-51
2022/09/17 08:58:34;;;;;;;6.03;2.53;;;11.30;99.90;;;13.87;57.79;97469.63;5025743;28;20060;-53
2022/09/17 09:01:19;;;;;;;8.30;3.75;;;11.30;99.90;;;13.93;58.19;97474.25;5025893;28;20056;-52
2022/09/17 09:04:25;;;;;;;10.88;2.70;;;11.30;99.90;;;14.08;57.28;97460.84;5025192;28;20596;-53
2022/09/17 09:07:22;;;;;;;7.18;2.65;;;11.40;99.90;;;13.84;56.95;97472.69;5026617;28;20252;-52
2022/09/17 09:10:16;;;;;;;5.32;3.17;;;11.20;99.90;;;13.76;57.17;97470.09;5025511;28;20360;-50
2022/09/17 09:12:46;;;;;;;6.88;2.75;;;11.20;99.90;;;14.09;56.58;97470.50;5026302;28;20065;-53
2022/09/17 09:15:26;;;;;;;5.68;2.67;;;11.20;99.90;;;14.31;56.30;97476.75;5023298;28;20045;-53
2022/09/17 09:17:56;;;;;;;4.72;2.75;;;11.40;99.90;;;14.30;56.34;97474.25;5026985;28;20053;-53
2022/09/17 09:21:02;;;;;;;7.18;2.70;;;11.40;99.90;;;13.95;55.68;97482.91;5007262;28;20062;-52
2022/09/17 09:23:55;;;;;;;7.68;2.60;;;11.40;99.90;;;14.09;55.77;97478.53;5025907;28;20060;-50
2022/09/17 09:27:01;;;;;;;7.38;3.38;;;11.40;99.90;;;13.43;57.01;97483.03;5027228;28;20055;-50
2022/09/17 09:29:57;;;;;;;5.05;2.63;;;11.20;99.90;;;13.30;56.67;97487.16;5029133;28;20076;-51
2022/09/17 09:33:05;;;;;;;4.85;2.72;;;11.10;99.90;;;13.11;57.25;97479.63;5029594;28;20053;-48
2022/09/17 09:35:38;;;;;;;4.90;2.35;;;11.10;99.90;;;13.56;57.12;97483.22;5012494;28;20058;-50
2022/09/17 09:38:24;;;;;;;6.43;2.78;;;11.20;99.90;;;13.32;57.16;97473.63;5028883;28;20053;-51
2022/09/17 09:41:36;;;;;;;5.90;2.63;;;11.30;99.90;;;13.78;56.70;97478.78;5028817;28;20057;-51
2022/09/17 09:44:10;;;;;;;5.82;2.83;;;11.50;99.90;;;13.85;56.10;97474.34;5027939;28;20374;-52
2022/09/17 09:46:40;;;;;;;;;;;11.50;99.90;;;13.61;55.76;97483.50;5020500;28;20056;-52
2022/09/17 09:49:23;;;;;;;3.67;1.88;;;11.50;99.90;;;13.82;55.71;97473.88;5028731;28;19917;-50
2022/09/17 09:52:06;;;;;;;5.20;3.13;;;11.50;99.90;;;14.19;55.52;97478.28;5028957;28;20379;-51
2022/09/17 09:54:52;;;;;;;7.13;3.00;;;11.70;99.90;;;14.45;55.23;97468.88;5028131;28;20057;-50
2022/09/17 09:57:51;;;;;;;2.97;2.03;;;11.90;99.90;;;14.01;54.85;97469.81;5029774;28;20068;-50
2022/09/17 10:00:38;;;;;;;5.32;2.03;;;11.80;99.90;;;14.41;54.38;97475.63;5027287;28;20053;-52
2022/09/17 10:03:25;;;;;;;3.28;2.10;;;11.90;99.90;;;14.26;54.04;97472.97;5027682;28;20051;-53
2022/09/17 10:06:03;;;;;;;9.38;2.60;;;12.00;99.90;;;14.50;54.36;97461.94;5026933;28;20332;-53
2022/09/17 10:08:37;;;;;;;4.15;2.55;;;12.10;99.90;;;14.85;53.86;97469.28;5029002;28;20064;-54
2022/09/17 10:11:20;;;;;;;9.68;2.25;;;12.30;99.90;;;14.56;52.97;97479.94;5028502;28;20363;-52
2022/09/17 10:13:48;;;;;;;5.47;2.13;;;12.50;96.20;;;14.91;52.86;97472.03;5028925;28;20053;-53
2022/09/17 10:16:23;;;;;;;14.98;2.38;;;12.50;98.10;;;15.01;52.10;97473.56;5028976;28;20060;-54
2022/09/17 10:19:03;;;;;;;4.38;2.28;;;12.50;94.50;;;14.80;51.82;97459.13;5029355;28;20247;-53
2022/09/17 10:21:38;;;;;;;6.75;3.03;;;12.50;94.60;;;14.81;53.09;97463.50;5026652;28;20404;-51
2022/09/17 10:24:29;;;;;;;5.00;2.22;;;12.60;98.40;;;15.00;52.18;97458.47;5028118;28;20045;-51
2022/09/17 10:27:16;;;;;;;5.93;2.97;;;12.70;95.60;;;14.92;51.70;97457.59;5028668;28;20053;-56
2022/09/17 10:29:48;;;;;;;7.63;2.88;;;12.70;94.90;;;14.81;52.52;97471.53;5028456;28;20347;-55
2022/09/17 10:32:19;;;;;;;4.20;3.10;;;12.60;95.60;;;14.79;51.37;97472.72;5027214;28;20053;-54
2022/09/17 10:35:15;;;;;;;4.03;2.03;;;12.70;90.70;;;14.82;51.05;97459.78;5043454;28;20079;-51
2022/09/17 10:37:50;;;;;;;3.92;2.00;;;12.70;91.10;;;15.47;50.53;97481.94;5028227;28;20543;-53
2022/09/17 10:40:17;;;;;;;4.07;2.17;;;13.00;91.50;;;15.07;50.72;97460.19;5026609;28;20076;-52
2022/09/17 10:43:20;;;;;;;6.35;3.40;;;12.90;87.80;;;14.65;51.41;97455.69;5028743;28;20049;-53
2022/09/17 10:45:58;;;;;;;5.50;2.50;;;12.70;90.70;;;14.95;50.91;97448.34;5026491;28;20386;-52
2022/09/17 10:48:43;;;;;;;4.35;2.58;;;12.60;90.40;;;14.40;50.88;97448.00;5028701;28;20059;-51
2022/09/17 10:51:22;;;;;;;3.92;2.13;;;12.40;88.60;;;14.73;50.68;97440.34;5026752;28;20041;-54
2022/09/17 10:54:43;;;;;;;4.10;1.90;;;12.40;89.50;;;14.91;50.19;97450.59;5026951;28;20068;-53
2022/09/17 10:57:27;;;;;;;4.70;2.20;;;12.60;88.10;;;14.86;51.02;97436.09;5028596;28;20057;-54
2022/09/17 11:00:20;;;;;;;10.00;2.35;;;12.70;89.00;;;15.01;51.14;97444.88;5027242;28;20051;-53